Time;durP1;ratioP1;P1;durP2;ratioP2;P2;SDS_P1;SDS_P2;PMS_P1;PMS_P2;Temp;Humidity;BMP_temperature;BMP_pressure;BME280_temperature;BME280_humidity;BME280_pressure;Samples;Min_cycle;Max_cycle;Signal;HPM_P1;HPM_P2
2023/09/08 00:00:33;;;;;;;4.68;3.67;;;;;;;24.31;31.15;101328.88;5005116;28;20030;-83
2023/09/08 00:03:00;;;;;;;4.82;3.60;;;;;;;24.29;31.08;101331.03;4998348;28;20043;-82
2023/09/08 00:05:30;;;;;;;5.25;3.92;;;;;;;24.30;30.96;101343.94;5003106;28;20575;-83
2023/09/08 00:07:58;;;;;;;5.40;3.50;;;;;;;24.26;31.34;101334.25;4997177;28;20070;-82
2023/09/08 00:10:26;;;;;;;6.32;4.03;;;;;;;24.25;30.86;101330.59;4998537;28;20042;-83
2023/09/08 00:12:54;;;;;;;4.70;3.90;;;;;;;24.23;31.18;101326.31;4998414;28;20069;-82
2023/09/08 00:15:21;;;;;;;5.82;3.95;;;;;;;24.22;30.95;101328.22;5005246;28;20050;-82
2023/09/08 00:17:49;;;;;;;6.40;4.10;;;;;;;24.20;31.10;101327.56;5001312;28;20042;-83
2023/09/08 00:20:17;;;;;;;6.55;3.90;;;;;;;24.18;31.28;101323.25;4997535;28;20060;-83
2023/09/08 00:22:46;;;;;;;5.47;3.97;;;;;;;24.18;31.26;101318.53;5001552;28;20038;-83
2023/09/08 00:25:15;;;;;;;4.75;3.92;;;;;;;24.14;31.43;101317.25;5003320;28;20051;-83
2023/09/08 00:27:42;;;;;;;6.95;4.03;;;;;;;24.12;31.30;101325.84;5004875;28;20053;-83
2023/09/08 00:30:11;;;;;;;4.53;3.47;;;;;;;24.12;31.34;101314.66;5001708;28;20478;-83
2023/09/08 00:32:39;;;;;;;4.70;4.03;;;;;;;24.10;31.40;101321.53;5007466;28;20570;-83
2023/09/08 00:35:08;;;;;;;5.15;3.85;;;;;;;24.08;31.34;101318.94;5009052;28;20045;-83
2023/09/08 00:37:36;;;;;;;5.57;4.18;;;;;;;24.06;31.38;101318.31;5006130;28;20557;-82
2023/09/08 00:40:08;;;;;;;5.95;3.70;;;;;;;24.08;31.43;101320.88;5000084;28;20073;-83
2023/09/08 00:42:36;;;;;;;6.30;4.00;;;;;;;24.03;31.44;101331.84;4998993;28;20051;-83
2023/09/08 00:45:04;;;;;;;4.32;3.50;;;;;;;24.03;31.64;101329.06;4999551;28;20902;-83
2023/09/08 00:47:32;;;;;;;5.03;3.50;;;;;;;24.02;31.53;101321.72;5002486;28;20140;-83
2023/09/08 00:50:00;;;;;;;4.93;3.47;;;;;;;24.00;31.49;101327.53;5004309;28;20042;-83
2023/09/08 00:52:32;;;;;;;5.03;3.75;;;;;;;23.99;31.46;101320.22;5002392;28;20624;-83
2023/09/08 00:55:00;;;;;;;4.30;3.53;;;;;;;23.95;31.40;101327.31;5007865;28;20188;-82
2023/09/08 00:57:29;;;;;;;5.70;4.22;;;;;;;23.98;31.44;101332.50;5007461;28;20442;-83
2023/09/08 00:59:58;;;;;;;5.10;4.03;;;;;;;23.93;31.72;101326.66;5012925;28;20050;-83
2023/09/08 01:02:26;;;;;;;5.22;4.00;;;;;;;23.93;31.58;101323.00;5017906;28;20527;-84
2023/09/08 01:04:54;;;;;;;4.68;3.90;;;;;;;23.92;31.64;101324.06;5007636;28;20080;-83
2023/09/08 01:07:22;;;;;;;5.30;3.70;;;;;;;23.91;31.70;101325.16;5008890;28;20466;-84
2023/09/08 01:09:51;;;;;;;5.57;4.15;;;;;;;23.89;31.89;101318.91;5005313;28;20050;-84
2023/09/08 01:12:20;;;;;;;5.25;3.75;;;;;;;23.87;31.82;101315.47;4997919;28;20038;-83
2023/09/08 01:14:49;;;;;;;5.10;4.10;;;;;;;23.86;31.80;101323.00;5007483;28;20045;-83
2023/09/08 01:17:17;;;;;;;5.43;4.18;;;;;;;23.82;31.97;101315.25;4997122;28;20046;-83
2023/09/08 01:19:47;;;;;;;6.20;4.45;;;;;;;23.81;32.02;101319.13;5001610;28;20125;-83
2023/09/08 01:22:30;;;;;;;5.93;4.10;;;;;;;23.80;31.95;101321.03;5015314;28;20135;-83
2023/09/08 01:25:11;;;;;;;5.03;3.83;;;;;;;23.76;32.23;101316.94;5017449;28;20050;-82
2023/09/08 01:27:41;;;;;;;5.28;4.40;;;;;;;23.72;31.98;101322.06;5006514;28;20042;-83
2023/09/08 01:30:10;;;;;;;5.68;4.10;;;;;;;23.68;31.90;101319.88;4999895;28;20070;-83
2023/09/08 01:32:38;;;;;;;6.13;4.30;;;;;;;23.65;32.21;101311.94;4998524;28;20061;-83
2023/09/08 01:35:07;;;;;;;5.28;3.97;;;;;;;23.64;32.17;101318.59;5004711;28;20041;-83
2023/09/08 01:37:35;;;;;;;4.95;3.88;;;;;;;23.60;32.17;101314.47;5005010;28;20436;-82
2023/09/08 01:40:03;;;;;;;5.40;3.97;;;;;;;23.57;32.37;101317.72;4997317;28;20137;-82
2023/09/08 01:42:32;;;;;;;6.78;4.10;;;;;;;23.57;32.19;101321.38;4997624;28;20060;-83
2023/09/08 01:45:00;;;;;;;5.40;4.03;;;;;;;23.52;32.31;101317.47;5004840;28;20058;-82
2023/09/08 01:47:30;;;;;;;5.63;4.28;;;;;;;23.51;32.55;101321.31;5005990;28;20116;-83
2023/09/08 01:49:58;;;;;;;4.95;4.13;;;;;;;23.48;32.34;101317.03;4997864;28;20038;-84
2023/09/08 01:52:26;;;;;;;5.68;4.40;;;;;;;23.48;32.30;101310.59;5005989;28;20061;-83
2023/09/08 01:54:55;;;;;;;6.35;4.10;;;;;;;23.46;32.47;101309.91;5005160;28;20097;-83
2023/09/08 01:57:23;;;;;;;4.72;3.83;;;;;;;23.44;32.58;101306.47;5001911;28;20584;-83
2023/09/08 01:59:52;;;;;;;5.50;4.35;;;;;;;23.44;32.53;101303.66;4999292;28;20058;-83
2023/09/08 02:02:20;;;;;;;5.70;4.40;;;;;;;23.41;32.83;101304.97;5002866;28;20054;-83
2023/09/08 02:04:48;;;;;;;5.72;4.53;;;;;;;23.40;32.31;101300.44;5004926;28;20104;-82
2023/09/08 02:07:17;;;;;;;5.15;3.83;;;;;;;23.36;32.72;101297.19;5002871;28;20121;-81
2023/09/08 02:09:44;;;;;;;5.03;4.07;;;;;;;23.34;32.50;101304.06;5012581;28;20049;-82
2023/09/08 02:12:12;;;;;;;5.00;4.10;;;;;;;23.31;32.63;101302.56;5009885;28;20061;-82
2023/09/08 02:14:40;;;;;;;5.47;3.90;;;;;;;23.29;32.65;101301.91;5008525;28;20050;-82
2023/09/08 02:17:09;;;;;;;5.22;3.63;;;;;;;23.29;32.60;101304.69;5007686;28;20571;-82
2023/09/08 02:19:37;;;;;;;6.00;3.80;;;;;;;23.26;32.64;101312.59;5012257;28;20140;-82
2023/09/08 02:22:05;;;;;;;5.50;3.60;;;;;;;23.23;32.70;101305.53;5012107;28;20046;-81
2023/09/08 02:24:33;;;;;;;6.35;4.15;;;;;;;23.20;32.94;101303.13;5016973;28;20470;-81
2023/09/08 02:27:01;;;;;;;6.10;4.53;;;;;;;23.17;32.88;101309.13;5005662;28;20216;-82
2023/09/08 02:29:30;;;;;;;5.10;4.28;;;;;;;23.14;33.07;101298.34;5006573;28;20122;-82
2023/09/08 02:31:58;;;;;;;5.40;4.30;;;;;;;23.11;33.20;101306.28;5010529;28;20030;-82
2023/09/08 02:34:27;;;;;;;6.68;4.28;;;;;;;23.09;33.29;101300.88;5012963;28;20120;-82
2023/09/08 02:36:55;;;;;;;5.80;4.35;;;;;;;23.03;33.17;101301.72;5013085;28;20042;-83
2023/09/08 02:39:26;;;;;;;6.03;4.40;;;;;;;23.00;33.27;101302.97;5007277;28;20480;-83
2023/09/08 02:41:55;;;;;;;5.60;4.32;;;;;;;22.96;33.10;101304.47;5014586;28;20069;-83
2023/09/08 02:44:23;;;;;;;5.38;4.03;;;;;;;22.95;33.21;101304.69;5011093;28;20037;-83
2023/09/08 02:46:51;;;;;;;5.13;4.00;;;;;;;22.92;33.20;101305.09;5015611;28;20045;-81
2023/09/08 02:49:19;;;;;;;5.40;4.15;;;;;;;22.89;33.12;101305.50;5023676;28;20089;-81
2023/09/08 02:51:48;;;;;;;5.10;4.20;;;;;;;22.88;33.33;101296.28;5010473;28;20065;-82
2023/09/08 02:54:16;;;;;;;5.70;4.20;;;;;;;22.85;33.24;101310.63;5000207;28;20042;-82
2023/09/08 02:56:44;;;;;;;6.53;4.60;;;;;;;22.84;33.36;101300.53;5003538;28;20108;-82
2023/09/08 02:59:12;;;;;;;5.30;4.22;;;;;;;22.82;33.60;101305.47;5004719;28;20034;-82
2023/09/08 03:01:40;;;;;;;5.47;4.18;;;;;;;22.79;33.74;101305.00;5008883;28;20042;-82
2023/09/08 03:04:08;;;;;;;5.75;4.55;;;;;;;22.75;33.49;101307.34;5005544;28;20477;-82
2023/09/08 03:06:36;;;;;;;6.40;4.05;;;;;;;22.72;33.39;101312.47;5007866;28;20050;-83
2023/09/08 03:09:05;;;;;;;5.45;4.03;;;;;;;22.71;33.66;101305.16;5005330;28;20045;-82
2023/09/08 03:11:33;;;;;;;5.95;4.43;;;;;;;22.66;34.06;101310.50;5009445;28;20100;-82
2023/09/08 03:14:01;;;;;;;5.65;4.32;;;;;;;22.62;33.93;101304.44;5014042;28;20167;-82
2023/09/08 03:16:31;;;;;;;5.38;4.28;;;;;;;22.59;33.86;101302.09;5011141;28;20120;-81
2023/09/08 03:18:59;;;;;;;6.75;4.50;;;;;;;22.54;34.22;101305.47;5014156;28;20065;-83
2023/09/08 03:21:27;;;;;;;5.45;4.40;;;;;;;22.52;33.67;101301.13;5016406;28;20073;-82
2023/09/08 03:23:55;;;;;;;6.15;4.47;;;;;;;22.50;33.79;101297.69;5004276;28;20042;-83
2023/09/08 03:26:24;;;;;;;6.00;4.45;;;;;;;22.50;34.01;101289.31;5001834;28;20076;-83
2023/09/08 03:28:53;;;;;;;6.28;4.55;;;;;;;22.46;34.09;101290.78;5004493;28;20042;-84
2023/09/08 03:31:21;;;;;;;6.78;4.50;;;;;;;22.44;33.99;101295.69;5003729;28;20037;-84
2023/09/08 03:33:49;;;;;;;5.80;4.43;;;;;;;22.42;34.14;101292.25;5011581;28;20041;-83
2023/09/08 03:36:17;;;;;;;7.55;4.88;;;;;;;22.40;34.29;101288.81;5011733;28;20071;-82
2023/09/08 03:38:46;;;;;;;6.18;4.70;;;;;;;22.39;34.07;101292.66;5010682;28;20128;-84
2023/09/08 03:41:14;;;;;;;6.35;4.60;;;;;;;22.37;34.45;101280.81;5015437;28;20482;-82
2023/09/08 03:43:43;;;;;;;5.95;4.00;;;;;;;22.36;34.50;101282.75;4995851;28;20367;-83
2023/09/08 03:46:12;;;;;;;5.97;4.05;;;;;;;22.33;34.49;101279.53;4983417;28;20100;-84
2023/09/08 03:48:41;;;;;;;6.25;4.63;;;;;;;22.30;34.30;101269.63;4985465;28;20037;-82
2023/09/08 03:51:09;;;;;;;6.57;4.47;;;;;;;22.27;34.34;101282.03;4990845;28;20442;-83
2023/09/08 03:53:37;;;;;;;5.68;4.32;;;;;;;22.24;34.31;101274.09;5001431;28;20038;-84
2023/09/08 03:56:07;;;;;;;5.32;4.40;;;;;;;22.22;34.38;101276.22;5000852;28;20038;-84
2023/09/08 03:58:35;;;;;;;5.90;4.35;;;;;;;22.19;34.24;101284.09;4989639;28;20483;-83
2023/09/08 04:01:04;;;;;;;5.35;4.43;;;;;;;22.19;34.54;101289.69;5000813;28;20065;-83
2023/09/08 04:03:32;;;;;;;6.45;4.60;;;;;;;22.15;34.58;101285.56;5009533;28;20052;-83
2023/09/08 04:06:01;;;;;;;6.22;4.35;;;;;;;22.12;34.63;101284.03;5004746;28;20034;-84
2023/09/08 04:08:29;;;;;;;6.72;4.97;;;;;;;22.11;34.75;101287.03;5004740;28;20034;-84
2023/09/08 04:10:57;;;;;;;6.10;4.55;;;;;;;22.08;34.84;101296.66;5010277;28;20110;-84
2023/09/08 04:13:26;;;;;;;6.05;4.72;;;;;;;22.06;34.75;101296.00;5007856;28;20420;-84
2023/09/08 04:15:54;;;;;;;5.85;4.40;;;;;;;22.04;34.60;101291.69;5013496;28;20610;-83
2023/09/08 04:18:24;;;;;;;5.90;4.78;;;;;;;22.05;34.81;101297.06;5007021;28;20057;-83
2023/09/08 04:20:52;;;;;;;5.07;4.50;;;;;;;22.02;34.52;101296.59;5006938;28;20076;-84
2023/09/08 04:23:20;;;;;;;5.75;4.10;;;;;;;22.03;34.91;101298.31;5006020;28;20058;-85
2023/09/08 04:25:49;;;;;;;5.78;4.55;;;;;;;22.01;35.01;101292.09;5011212;28;20052;-84
2023/09/08 04:28:17;;;;;;;6.00;4.38;;;;;;;22.00;34.67;101284.78;5014152;28;20100;-83
2023/09/08 04:30:44;;;;;;;6.72;4.35;;;;;;;22.00;35.17;101287.59;5026701;28;20068;-84
2023/09/08 04:33:13;;;;;;;7.05;4.57;;;;;;;21.98;34.84;101293.34;5012411;28;20158;-83
2023/09/08 04:35:42;;;;;;;6.68;4.40;;;;;;;21.98;35.07;101290.56;5000435;28;20127;-84
2023/09/08 04:38:11;;;;;;;6.07;4.65;;;;;;;21.94;34.74;101294.78;5027710;28;20041;-83
2023/09/08 04:40:41;;;;;;;5.55;4.10;;;;;;;21.96;35.20;101298.25;5005555;28;20048;-84
2023/09/08 04:43:10;;;;;;;6.60;4.80;;;;;;;21.90;35.12;101290.66;5007246;28;20053;-84
2023/09/08 04:45:38;;;;;;;5.93;4.47;;;;;;;21.88;35.10;101293.63;5017663;28;20049;-84
2023/09/08 04:48:07;;;;;;;6.32;4.43;;;;;;;21.87;34.87;101289.13;5019477;28;20046;-84
2023/09/08 04:50:35;;;;;;;6.78;4.55;;;;;;;21.86;35.00;101297.66;5023384;28;20038;-83
2023/09/08 04:53:04;;;;;;;6.07;4.97;;;;;;;21.87;35.30;101299.41;5032742;28;20107;-84
2023/09/08 04:55:32;;;;;;;7.72;4.63;;;;;;;21.83;34.98;101296.16;4987224;28;20065;-84
2023/09/08 04:58:00;;;;;;;5.50;4.57;;;;;;;21.82;34.88;101297.22;4991467;28;20049;-84
2023/09/08 05:00:28;;;;;;;6.28;4.53;;;;;;;21.81;35.26;101303.00;4991799;28;20045;-84
2023/09/08 05:02:56;;;;;;;6.05;4.80;;;;;;;21.81;34.99;101295.50;5014700;28;20037;-84
2023/09/08 05:05:25;;;;;;;6.85;4.90;;;;;;;21.80;35.14;101309.63;5012310;28;20049;-84
2023/09/08 05:07:56;;;;;;;7.53;4.60;;;;;;;21.78;35.18;101295.00;4989051;28;20038;-83
2023/09/08 05:10:25;;;;;;;8.00;4.88;;;;;;;21.80;35.39;101304.91;4987548;28;20049;-83
2023/09/08 05:12:53;;;;;;;6.38;4.50;;;;;;;21.77;35.09;101296.94;4991821;28;20485;-83
2023/09/08 05:15:22;;;;;;;6.75;4.75;;;;;;;21.74;35.21;101297.34;4987202;28;20414;-83
2023/09/08 05:17:53;;;;;;;5.85;4.57;;;;;;;21.73;35.24;101287.25;5013250;28;20042;-84
2023/09/08 05:20:22;;;;;;;5.28;4.50;;;;;;;21.73;35.39;101291.97;5009667;28;20505;-83
2023/09/08 05:22:50;;;;;;;5.95;4.68;;;;;;;21.71;35.03;101302.44;4989673;28;20414;-83
2023/09/08 05:25:18;;;;;;;8.13;5.30;;;;;;;21.68;35.33;101295.38;5005696;28;20050;-84
2023/09/08 05:27:48;;;;;;;5.38;4.45;;;;;;;21.69;35.39;101298.97;5013678;28;20045;-84
2023/09/08 05:30:17;;;;;;;7.13;4.70;;;;;;;21.66;35.44;101302.19;4987850;28;20132;-86
2023/09/08 05:32:45;;;;;;;6.18;4.53;;;;;;;21.64;35.30;101295.94;4994511;28;20152;-87
2023/09/08 05:35:14;;;;;;;6.45;4.70;;;;;;;21.63;35.49;101305.34;5000791;28;20041;-87
2023/09/08 05:37:42;;;;;;;5.95;4.90;;;;;;;21.61;35.55;101299.97;5010898;28;20131;-87
2023/09/08 05:40:10;;;;;;;7.80;5.20;;;;;;;21.62;35.67;101300.84;4991888;28;20068;-86
2023/09/08 05:42:38;;;;;;;6.05;4.78;;;;;;;21.62;35.67;101301.69;5019333;28;20045;-84
2023/09/08 05:45:08;;;;;;;6.70;4.93;;;;;;;21.63;35.60;101303.44;4996949;28;20042;-85
2023/09/08 05:47:37;;;;;;;7.18;5.10;;;;;;;21.61;35.74;101310.25;5017716;28;20124;-86
2023/09/08 05:50:06;;;;;;;7.30;4.95;;;;;;;21.62;35.62;101304.47;5013568;28;20132;-88
2023/09/08 05:52:35;;;;;;;6.30;4.88;;;;;;;21.62;35.83;101307.28;5009884;28;20522;-85
2023/09/08 05:55:03;;;;;;;7.57;5.03;;;;;;;21.60;35.91;101301.06;5017952;28;20136;-84
2023/09/08 05:57:31;;;;;;;7.18;4.70;;;;;;;21.61;35.57;101304.66;5008244;28;20492;-84
2023/09/08 05:59:59;;;;;;;7.22;4.88;;;;;;;21.61;35.77;101311.09;5017942;28;20041;-84
2023/09/08 06:02:29;;;;;;;5.88;4.88;;;;;;;21.64;36.04;101307.06;5024175;28;20076;-85
2023/09/08 06:04:57;;;;;;;7.45;5.05;;;;;;;21.63;36.10;101317.34;5015196;28;20180;-85
2023/09/08 06:07:25;;;;;;;6.70;4.47;;;;;;;21.64;36.03;101313.50;5017202;28;20091;-85
2023/09/08 06:09:54;;;;;;;7.65;4.88;;;;;;;21.66;36.13;101319.75;5009369;28;20052;-86
2023/09/08 06:12:23;;;;;;;7.78;4.82;;;;;;;21.64;36.01;101319.09;5016345;28;20526;-86
2023/09/08 06:14:53;;;;;;;6.90;4.68;;;;;;;21.68;36.18;101316.78;5022752;28;20515;-85
2023/09/08 06:17:21;;;;;;;7.57;4.68;;;;;;;21.69;36.29;101318.47;5011255;28;20053;-85
2023/09/08 06:19:52;;;;;;;6.38;4.60;;;;;;;21.71;36.40;101314.44;5033858;28;20038;-87
2023/09/08 06:22:20;;;;;;;7.63;4.75;;;;;;;21.71;35.80;101311.66;5016137;28;20111;-85
2023/09/08 06:24:48;;;;;;;6.63;4.53;;;;;;;21.72;36.40;101313.41;5019176;28;20034;-85
2023/09/08 06:27:31;;;;;;;;;;;;;;;21.46;36.44;101313.06;5022312;28;20455;-85
2023/09/08 06:29:59;;;;;;;6.55;3.88;;;;;;;21.72;35.83;101323.66;5023475;28;20458;-85
2023/09/08 06:32:27;;;;;;;6.68;4.13;;;;;;;21.75;35.95;101324.16;5015074;28;20057;-84
2023/09/08 06:34:57;;;;;;;7.07;4.65;;;;;;;21.80;36.11;101324.41;5021733;28;20542;-83
2023/09/08 06:37:25;;;;;;;6.60;4.82;;;;;;;21.79;36.07;101322.69;5009059;28;20046;-83
2023/09/08 06:39:55;;;;;;;6.68;4.30;;;;;;;21.83;36.60;101329.59;5031743;28;20041;-84
2023/09/08 06:42:23;;;;;;;6.93;4.63;;;;;;;21.83;36.23;101326.81;5030771;28;20274;-84
2023/09/08 06:44:57;;;;;;;5.72;4.10;;;;;;;21.85;36.16;101333.03;5007294;28;20034;-84
2023/09/08 06:47:25;;;;;;;6.63;4.10;;;;;;;21.89;35.94;101327.94;5013525;28;20048;-84
2023/09/08 06:49:54;;;;;;;5.03;3.70;;;;;;;21.90;35.96;101329.69;5010887;28;20033;-84
2023/09/08 06:52:23;;;;;;;5.35;4.03;;;;;;;21.97;36.01;101335.34;5027579;28;20047;-84
2023/09/08 06:54:51;;;;;;;7.28;4.18;;;;;;;21.98;36.02;101334.28;5019462;28;20040;-84
2023/09/08 06:57:20;;;;;;;6.03;3.90;;;;;;;22.04;35.73;101331.56;5014778;28;20057;-85
2023/09/08 06:59:48;;;;;;;5.70;3.65;;;;;;;22.07;36.37;101331.19;5023223;28;20064;-84
2023/09/08 07:02:16;;;;;;;5.90;3.75;;;;;;;22.14;36.34;101325.66;5019811;28;20041;-84
2023/09/08 07:04:44;;;;;;;7.07;3.85;;;;;;;22.21;36.50;101323.81;5011614;28;20398;-83
2023/09/08 07:07:12;;;;;;;6.03;3.78;;;;;;;22.32;36.06;101325.19;5008842;28;20177;-83
2023/09/08 07:09:42;;;;;;;5.97;3.60;;;;;;;22.41;36.07;101329.56;5011935;28;20037;-83
2023/09/08 07:12:10;;;;;;;6.53;3.92;;;;;;;22.49;35.90;101319.13;5011821;28;20155;-82
2023/09/08 07:14:39;;;;;;;5.38;3.95;;;;;;;22.60;36.18;101331.69;4994845;28;20042;-84
2023/09/08 07:17:06;;;;;;;5.35;3.70;;;;;;;22.69;35.86;101322.09;4997725;28;20064;-85
2023/09/08 07:19:34;;;;;;;4.25;3.20;;;;;;;22.80;35.57;101324.34;5026125;28;20041;-83
2023/09/08 07:22:03;;;;;;;7.00;3.90;;;;;;;22.91;35.69;101322.91;5029398;28;20037;-85
2023/09/08 07:24:31;;;;;;;4.75;3.50;;;;;;;23.02;35.62;101322.31;4988095;28;20576;-86
2023/09/08 07:27:02;;;;;;;5.30;3.42;;;;;;;23.15;35.21;101324.34;5014570;28;20152;-84
2023/09/08 07:29:30;;;;;;;4.50;3.67;;;;;;;23.22;35.46;101328.94;5022268;28;20090;-84
2023/09/08 07:31:58;;;;;;;4.45;3.35;;;;;;;23.36;34.96;101330.72;5015146;28;20120;-84
2023/09/08 07:34:27;;;;;;;4.65;3.40;;;;;;;23.48;34.91;101344.09;5009776;28;20058;-82
2023/09/08 07:36:55;;;;;;;5.43;3.55;;;;;;;23.61;34.86;101342.22;5007519;28;20037;-82
2023/09/08 07:39:23;;;;;;;5.30;3.55;;;;;;;23.72;34.73;101336.03;4984541;28;20038;-84
2023/09/08 07:41:52;;;;;;;5.68;3.50;;;;;;;23.84;34.44;101339.09;5001586;28;20034;-82
2023/09/08 07:44:21;;;;;;;5.18;3.40;;;;;;;23.98;34.03;101343.69;5019425;28;20097;-83
2023/09/08 07:46:51;;;;;;;4.78;3.40;;;;;;;24.06;33.97;101343.47;4995111;28;20050;-83
2023/09/08 07:49:20;;;;;;;4.80;3.53;;;;;;;24.18;34.04;101340.03;4996117;28;20053;-83
2023/09/08 07:51:48;;;;;;;5.43;4.03;;;;;;;24.28;33.78;101338.56;5027580;28;20100;-83
2023/09/08 07:54:16;;;;;;;5.47;3.63;;;;;;;24.38;33.87;101339.03;5005713;28;20034;-83
2023/09/08 07:56:47;;;;;;;5.57;3.60;;;;;;;24.46;33.28;101333.22;5002194;28;21114;-83
2023/09/08 07:59:15;;;;;;;4.38;3.35;;;;;;;24.57;32.95;101326.09;4989650;28;20042;-82
2023/09/08 08:01:44;;;;;;;4.68;3.35;;;;;;;24.70;32.82;101339.25;5012363;28;20509;-83
2023/09/08 08:04:12;;;;;;;11.02;3.80;;;;;;;24.76;32.75;101332.78;5010115;28;20497;-84
2023/09/08 08:06:40;;;;;;;6.00;3.50;;;;;;;24.86;32.74;101333.22;5012451;28;20033;-83
2023/09/08 08:09:08;;;;;;;4.38;3.50;;;;;;;24.97;32.75;101340.13;5029861;28;21546;-82
2023/09/08 08:11:36;;;;;;;5.30;3.65;;;;;;;25.04;32.46;101335.38;5010605;28;20084;-84
2023/09/08 08:14:04;;;;;;;5.57;3.50;;;;;;;25.14;32.13;101333.81;5007065;28;20417;-83
2023/09/08 08:16:32;;;;;;;4.38;3.20;;;;;;;25.23;31.99;101331.63;5021660;28;20080;-84
2023/09/08 08:19:01;;;;;;;4.55;3.20;;;;;;;25.33;32.09;101333.97;5009598;28;20046;-82
2023/09/08 08:21:30;;;;;;;5.93;3.45;;;;;;;25.36;31.85;101326.00;5009178;28;20060;-83
2023/09/08 08:23:58;;;;;;;4.68;3.47;;;;;;;25.43;31.66;101320.38;5027358;28;20042;-81
2023/09/08 08:26:28;;;;;;;5.50;3.60;;;;;;;25.49;31.53;101325.94;5027612;28;20133;-80
2023/09/08 08:28:56;;;;;;;5.25;3.47;;;;;;;25.57;31.32;101328.53;5001771;28;20509;-83
2023/09/08 08:31:24;;;;;;;5.65;3.70;;;;;;;25.63;31.01;101330.47;4984958;28;20109;-82
2023/09/08 08:33:52;;;;;;;4.60;3.38;;;;;;;25.67;30.91;101328.06;5004506;28;20192;-82
2023/09/08 08:36:22;;;;;;;5.32;3.50;;;;;;;25.75;30.91;101333.41;4990717;28;20057;-86
2023/09/08 08:38:50;;;;;;;4.43;3.33;;;;;;;25.78;30.92;101332.97;5000042;28;20047;-82
2023/09/08 08:41:18;;;;;;;4.25;3.38;;;;;;;25.82;30.46;101325.81;5007159;28;20400;-83
2023/09/08 08:43:48;;;;;;;4.90;3.38;;;;;;;25.89;30.83;101328.56;5008800;28;20124;-82
2023/09/08 08:46:20;;;;;;;4.78;3.47;;;;;;;25.95;30.72;101325.75;4997808;28;20077;-83
2023/09/08 08:48:55;;;;;;;6.10;3.47;;;;;;;26.01;30.28;101318.38;5002592;28;20462;-84
2023/09/08 08:51:31;;;;;;;3.97;2.90;;;;;;;26.06;30.34;101326.97;5020889;28;20474;-83
2023/09/08 08:54:00;;;;;;;4.95;3.50;;;;;;;26.07;30.11;101322.25;5005114;28;20057;-83
2023/09/08 08:56:30;;;;;;;5.15;3.47;;;;;;;26.14;30.21;101323.06;5004759;28;20060;-83
2023/09/08 08:58:59;;;;;;;5.18;3.45;;;;;;;26.21;30.00;101319.16;5002185;28;20465;-84
2023/09/08 09:01:28;;;;;;;4.32;3.47;;;;;;;26.26;30.16;101326.88;5007346;28;20064;-83
2023/09/08 09:04:18;;;;;;;5.78;3.63;;;;;;;26.32;30.25;101320.34;5006522;28;20045;-83
2023/09/08 09:06:51;;;;;;;5.18;3.50;;;;;;;26.39;29.78;101323.94;5018268;28;20041;-84
2023/09/08 09:09:20;;;;;;;5.57;3.25;;;;;;;26.43;30.10;101325.22;5007559;28;20057;-81
2023/09/08 09:11:47;;;;;;;6.03;3.47;;;;;;;26.49;29.61;101321.50;4998540;28;20037;-83
2023/09/08 09:14:18;;;;;;;5.35;3.63;;;;;;;26.54;30.03;101327.31;5004823;28;20049;-81
2023/09/08 09:16:47;;;;;;;6.38;3.67;;;;;;;26.61;29.47;101324.44;5022436;28;20465;-83
2023/09/08 09:19:20;;;;;;;5.10;3.47;;;;;;;26.69;29.19;101322.22;5005425;28;20072;-82
2023/09/08 09:21:51;;;;;;;5.07;3.38;;;;;;;26.74;29.97;101313.97;5007208;28;20118;-81
2023/09/08 09:24:31;;;;;;;5.03;3.30;;;;;;;26.82;28.97;101317.56;5007118;28;20041;-82
2023/09/08 09:26:59;;;;;;;5.15;3.42;;;;;;;26.86;29.34;101321.63;5006527;28;20396;-83
2023/09/08 09:29:28;;;;;;;5.25;3.53;;;;;;;26.93;29.26;101317.66;5000699;28;20489;-82
2023/09/08 09:31:57;;;;;;;4.85;3.60;;;;;;;27.00;29.72;101323.22;4998754;28;20061;-83
2023/09/08 09:34:25;;;;;;;4.70;3.38;;;;;;;27.05;29.76;101309.31;5007010;28;20128;-82
2023/09/08 09:36:53;;;;;;;4.90;3.67;;;;;;;27.14;29.21;101327.59;5004481;28;20042;-83
2023/09/08 09:39:24;;;;;;;4.90;3.75;;;;;;;27.25;29.21;101317.56;5009107;28;20053;-84
2023/09/08 09:41:58;;;;;;;5.47;3.42;;;;;;;27.34;28.70;101318.97;5012970;28;20115;-84
2023/09/08 09:44:26;;;;;;;4.70;3.42;;;;;;;27.39;29.06;101307.88;5026118;28;20072;-82
2023/09/08 09:46:55;;;;;;;5.65;3.20;;;;;;;27.50;29.31;101318.34;5004306;28;20057;-83
2023/09/08 09:49:26;;;;;;;4.60;3.20;;;;;;;27.59;28.89;101318.88;5028275;28;20413;-86
2023/09/08 09:51:55;;;;;;;4.35;3.35;;;;;;;27.65;28.50;101320.75;5021861;28;20120;-83
2023/09/08 09:54:24;;;;;;;4.85;3.50;;;;;;;27.78;28.47;101318.63;5018688;28;20080;-86
2023/09/08 09:56:54;;;;;;;4.32;3.13;;;;;;;27.84;28.68;101314.88;5019885;28;20428;-83
2023/09/08 09:59:23;;;;;;;4.82;3.40;;;;;;;27.92;28.00;101312.84;5013463;28;20053;-83
2023/09/08 10:01:51;;;;;;;5.57;3.78;;;;;;;27.98;27.96;101307.09;5025359;28;20053;-83
2023/09/08 10:04:19;;;;;;;4.68;3.40;;;;;;;28.05;27.92;101310.66;5035818;28;20052;-83
2023/09/08 10:06:48;;;;;;;5.35;3.80;;;;;;;28.12;28.12;101310.56;5027126;28;20572;-83
2023/09/08 10:09:19;;;;;;;4.20;3.25;;;;;;;28.17;27.55;101311.56;5007835;28;20042;-84
2023/09/08 10:11:50;;;;;;;5.70;3.50;;;;;;;28.27;27.29;101308.22;5020140;28;20112;-83
2023/09/08 10:14:19;;;;;;;4.95;4.13;;;;;;;28.30;27.75;101316.16;5016623;28;20038;-87
2023/09/08 10:16:52;;;;;;;5.03;3.50;;;;;;;28.38;27.45;101306.50;5024613;28;20034;-85
2023/09/08 10:19:22;;;;;;;5.00;3.45;;;;;;;28.43;27.50;101306.66;5002561;28;20117;-83
2023/09/08 10:21:52;;;;;;;4.32;3.65;;;;;;;28.50;27.33;101304.56;5010633;28;20406;-83
2023/09/08 10:24:25;;;;;;;5.03;3.90;;;;;;;28.55;26.89;101305.56;5025798;28;20100;-85
2023/09/08 10:26:59;;;;;;;4.45;3.38;;;;;;;28.63;26.84;101298.69;5008002;28;20096;-86
2023/09/08 10:29:28;;;;;;;4.80;3.42;;;;;;;28.67;27.31;101299.09;5015708;28;20042;-86
2023/09/08 10:31:57;;;;;;;5.47;3.45;;;;;;;28.75;27.54;101295.94;5018261;28;20042;-83
2023/09/08 10:34:27;;;;;;;5.03;3.45;;;;;;;28.83;27.10;101293.59;5014235;28;20152;-83
2023/09/08 10:36:55;;;;;;;4.78;3.58;;;;;;;28.89;27.15;101295.44;5011845;28;20043;-83
2023/09/08 10:39:35;;;;;;;4.47;3.15;;;;;;;29.01;27.05;101294.56;5013055;28;20045;-82
2023/09/08 10:42:29;;;;;;;4.10;3.40;;;;;;;29.04;26.58;101296.88;5009188;28;20034;-83
2023/09/08 10:45:04;;;;;;;5.03;3.50;;;;;;;29.14;26.32;101289.53;5012060;28;20049;-84
2023/09/08 10:47:35;;;;;;;5.30;3.65;;;;;;;29.19;26.37;101291.59;5010250;28;20060;-83
2023/09/08 10:50:05;;;;;;;4.80;3.83;;;;;;;29.23;26.77;101287.19;5024615;28;20081;-84
2023/09/08 10:52:35;;;;;;;5.15;3.50;;;;;;;29.29;26.16;101298.34;5006957;28;20349;-84
2023/09/08 10:55:06;;;;;;;5.68;3.58;;;;;;;29.36;26.47;101296.25;5023635;28;20060;-83
2023/09/08 10:57:35;;;;;;;4.55;3.30;;;;;;;29.40;26.32;101299.44;5022954;28;20034;-83
2023/09/08 11:00:11;;;;;;;4.25;3.72;;;;;;;29.48;26.40;101298.19;5005907;28;20101;-84
2023/09/08 11:02:41;;;;;;;5.20;3.30;;;;;;;29.53;26.84;101301.97;5024159;28;20310;-83
2023/09/08 11:05:11;;;;;;;4.80;3.28;;;;;;;29.58;26.18;101299.25;5015573;28;20049;-83
2023/09/08 11:07:39;;;;;;;4.50;3.20;;;;;;;29.64;26.30;101303.03;5019674;28;20516;-84
2023/09/08 11:10:09;;;;;;;6.10;3.88;;;;;;;29.71;25.99;101298.97;5008803;28;20038;-84
2023/09/08 11:12:39;;;;;;;5.13;3.53;;;;;;;29.79;26.28;101306.19;5007845;28;20096;-85
2023/09/08 11:15:09;;;;;;;4.45;3.53;;;;;;;29.84;26.03;101302.63;5011714;28;20529;-84
2023/09/08 11:17:39;;;;;;;4.57;3.60;;;;;;;29.89;25.98;101300.75;5008983;28;20041;-84
2023/09/08 11:20:10;;;;;;;4.07;3.50;;;;;;;29.96;25.72;101297.78;5029765;28;20152;-85
2023/09/08 11:22:39;;;;;;;4.87;3.50;;;;;;;30.00;26.33;101299.00;5025096;28;20052;-84
2023/09/08 11:25:10;;;;;;;4.80;3.55;;;;;;;30.07;26.09;101300.56;5024756;28;20100;-84
2023/09/08 11:27:40;;;;;;;4.40;3.47;;;;;;;30.13;26.15;101298.66;5024869;28;20051;-84
2023/09/08 11:30:09;;;;;;;4.93;3.67;;;;;;;30.18;25.77;101293.09;5028014;28;20099;-84
2023/09/08 11:32:37;;;;;;;5.75;3.85;;;;;;;30.23;26.24;101295.22;5015298;28;20235;-83